sensor_id;sensor_type;location;lat;lon;timestamp;pressure;altitude;pressure_sealevel;temperature;humidity
33161;BME280;19522;45.656;11.302;2022-12-29T00:00:49;99002.69;;;6.18;90.99
33161;BME280;19522;45.656;11.302;2022-12-29T00:03:14;99004.41;;;5.90;92.23
33161;BME280;19522;45.656;11.302;2022-12-29T00:05:40;99003.44;;;5.71;93.94
33161;BME280;19522;45.656;11.302;2022-12-29T00:08:05;99005.56;;;5.68;95.57
33161;BME280;19522;45.656;11.302;2022-12-29T00:10:31;98995.56;;;6.17;92.95
33161;BME280;19522;45.656;11.302;2022-12-29T00:12:56;98970.69;;;6.23;91.16
33161;BME280;19522;45.656;11.302;2022-12-29T00:15:40;98959.28;;;6.02;91.29
33161;BME280;19522;45.656;11.302;2022-12-29T00:18:07;98932.50;;;5.81;92.60
33161;BME280;19522;45.656;11.302;2022-12-29T00:20:34;98979.72;;;6.04;93.26
33161;BME280;19522;45.656;11.302;2022-12-29T00:23:19;98966.78;;;5.98;93.95
33161;BME280;19522;45.656;11.302;2022-12-29T00:26:03;98946.94;;;5.89;94.51
33161;BME280;19522;45.656;11.302;2022-12-29T00:28:47;98967.78;;;6.07;94.26
33161;BME280;19522;45.656;11.302;2022-12-29T00:31:31;98961.25;;;6.10;93.81
33161;BME280;19522;45.656;11.302;2022-12-29T00:34:15;98965.50;;;6.12;93.56
33161;BME280;19522;45.656;11.302;2022-12-29T00:37:00;98953.53;;;6.24;92.22
33161;BME280;19522;45.656;11.302;2022-12-29T00:39:25;98948.84;;;6.54;90.49
33161;BME280;19522;45.656;11.302;2022-12-29T00:42:09;98922.56;;;6.57;89.06
33161;BME280;19522;45.656;11.302;2022-12-29T00:44:53;98948.13;;;6.52;90.18
33161;BME280;19522;45.656;11.302;2022-12-29T00:47:19;98940.13;;;6.33;91.34
33161;BME280;19522;45.656;11.302;2022-12-29T00:49:44;98930.13;;;6.25;91.10
33161;BME280;19522;45.656;11.302;2022-12-29T00:52:12;98950.22;;;6.31;91.82
33161;BME280;19522;45.656;11.302;2022-12-29T00:54:39;98948.50;;;6.39;91.11
33161;BME280;19522;45.656;11.302;2022-12-29T00:57:08;98946.25;;;6.35;91.12
33161;BME280;19522;45.656;11.302;2022-12-29T00:59:38;98939.44;;;6.31;90.75
33161;BME280;19522;45.656;11.302;2022-12-29T01:02:04;98927.72;;;6.12;91.96
33161;BME280;19522;45.656;11.302;2022-12-29T01:04:30;98954.97;;;6.19;93.19
33161;BME280;19522;45.656;11.302;2022-12-29T01:06:55;98940.75;;;6.27;91.61
33161;BME280;19522;45.656;11.302;2022-12-29T01:09:21;98956.28;;;6.43;91.21
33161;BME280;19522;45.656;11.302;2022-12-29T01:12:06;98905.91;;;5.96;91.89
33161;BME280;19522;45.656;11.302;2022-12-29T01:14:32;98890.69;;;5.76;92.73
33161;BME280;19522;45.656;11.302;2022-12-29T01:16:57;98920.53;;;5.93;94.24
33161;BME280;19522;45.656;11.302;2022-12-29T01:19:23;98903.13;;;5.77;94.40
33161;BME280;19522;45.656;11.302;2022-12-29T01:21:49;98944.13;;;6.01;94.91
33161;BME280;19522;45.656;11.302;2022-12-29T01:24:16;98914.06;;;5.86;95.04
33161;BME280;19522;45.656;11.302;2022-12-29T01:26:42;98910.09;;;5.80;94.86
33161;BME280;19522;45.656;11.302;2022-12-29T01:29:08;98905.38;;;5.92;93.91
33161;BME280;19522;45.656;11.302;2022-12-29T01:31:34;98940.66;;;6.18;93.84
33161;BME280;19522;45.656;11.302;2022-12-29T01:33:59;98928.44;;;6.14;93.13
33161;BME280;19522;45.656;11.302;2022-12-29T01:36:25;98956.66;;;6.20;93.03
33161;BME280;19522;45.656;11.302;2022-12-29T01:38:51;98945.28;;;6.26;93.11
33161;BME280;19522;45.656;11.302;2022-12-29T01:41:17;98891.22;;;5.80;93.29
33161;BME280;19522;45.656;11.302;2022-12-29T01:46:39;98872.63;;;5.29;95.00
33161;BME280;19522;45.656;11.302;2022-12-29T01:49:12;98957.75;;;5.89;95.32
33161;BME280;19522;45.656;11.302;2022-12-29T01:51:43;98957.00;;;6.07;94.57
33161;BME280;19522;45.656;11.302;2022-12-29T01:54:18;98893.22;;;5.78;93.40
33161;BME280;19522;45.656;11.302;2022-12-29T01:56:46;98911.88;;;5.99;92.92
33161;BME280;19522;45.656;11.302;2022-12-29T01:59:16;98925.47;;;6.17;92.28
33161;BME280;19522;45.656;11.302;2022-12-29T02:01:43;98920.84;;;6.00;92.63
33161;BME280;19522;45.656;11.302;2022-12-29T02:04:11;98953.94;;;6.30;92.52
33161;BME280;19522;45.656;11.302;2022-12-29T02:07:00;98960.72;;;6.34;92.15
33161;BME280;19522;45.656;11.302;2022-12-29T02:09:27;98950.81;;;6.24;92.00
33161;BME280;19522;45.656;11.302;2022-12-29T02:11:53;98955.84;;;6.10;92.72
33161;BME280;19522;45.656;11.302;2022-12-29T02:14:19;98963.94;;;6.10;93.68
33161;BME280;19522;45.656;11.302;2022-12-29T02:19:45;98949.84;;;6.26;93.35
33161;BME280;19522;45.656;11.302;2022-12-29T02:30:50;98860.81;;;5.88;91.92
33161;BME280;19522;45.656;11.302;2022-12-29T02:41:19;98897.69;;;6.35;90.51
33161;BME280;19522;45.656;11.302;2022-12-29T02:43:54;98938.16;;;6.35;91.89
33161;BME280;19522;45.656;11.302;2022-12-29T02:46:41;98910.00;;;6.10;92.70
33161;BME280;19522;45.656;11.302;2022-12-29T02:49:20;98931.06;;;6.34;93.17
33161;BME280;19522;45.656;11.302;2022-12-29T02:51:55;98881.78;;;6.04;92.63
33161;BME280;19522;45.656;11.302;2022-12-29T02:54:23;98893.63;;;6.21;93.01
33161;BME280;19522;45.656;11.302;2022-12-29T03:00:00;98894.19;;;6.24;92.96
33161;BME280;19522;45.656;11.302;2022-12-29T03:05:39;98912.88;;;6.36;93.07
33161;BME280;19522;45.656;11.302;2022-12-29T03:11:17;98890.56;;;6.62;91.00
33161;BME280;19522;45.656;11.302;2022-12-29T03:17:08;98725.47;;;5.38;92.63
33161;BME280;19522;45.656;11.302;2022-12-29T03:19:38;98908.06;;;6.58;92.05
33161;BME280;19522;45.656;11.302;2022-12-29T03:22:17;98906.09;;;6.78;90.75
33161;BME280;19522;45.656;11.302;2022-12-29T03:25:10;98905.47;;;6.84;90.14
33161;BME280;19522;45.656;11.302;2022-12-29T03:27:41;98877.97;;;6.52;90.71
33161;BME280;19522;45.656;11.302;2022-12-29T03:30:09;98828.38;;;6.17;91.74
33161;BME280;19522;45.656;11.302;2022-12-29T03:32:39;98902.88;;;6.64;91.57
33161;BME280;19522;45.656;11.302;2022-12-29T03:35:08;98893.34;;;6.52;92.55
33161;BME280;19522;45.656;11.302;2022-12-29T03:37:38;98875.72;;;6.30;93.66
33161;BME280;19522;45.656;11.302;2022-12-29T03:40:06;98810.50;;;5.78;94.51
33161;BME280;19522;45.656;11.302;2022-12-29T03:42:34;98881.31;;;6.18;95.10
33161;BME280;19522;45.656;11.302;2022-12-29T03:45:01;98879.59;;;6.17;95.77
33161;BME280;19522;45.656;11.302;2022-12-29T03:47:26;98835.88;;;5.86;95.80
33161;BME280;19522;45.656;11.302;2022-12-29T03:49:52;98871.91;;;6.22;95.88
33161;BME280;19522;45.656;11.302;2022-12-29T03:52:18;98881.97;;;6.20;95.79
33161;BME280;19522;45.656;11.302;2022-12-29T03:54:43;98878.16;;;6.23;95.77
33161;BME280;19522;45.656;11.302;2022-12-29T03:57:10;98874.28;;;6.53;93.21
33161;BME280;19522;45.656;11.302;2022-12-29T03:59:36;98882.22;;;6.55;92.83
33161;BME280;19522;45.656;11.302;2022-12-29T04:02:02;98896.53;;;6.10;94.65
33161;BME280;19522;45.656;11.302;2022-12-29T04:04:27;98868.47;;;6.02;95.73
33161;BME280;19522;45.656;11.302;2022-12-29T04:06:53;98888.00;;;6.14;95.71
33161;BME280;19522;45.656;11.302;2022-12-29T04:09:18;98886.91;;;6.07;95.93
33161;BME280;19522;45.656;11.302;2022-12-29T04:11:44;98882.31;;;6.17;96.53
33161;BME280;19522;45.656;11.302;2022-12-29T04:14:09;98877.06;;;6.44;94.32
33161;BME280;19522;45.656;11.302;2022-12-29T04:16:35;98841.75;;;6.09;94.14
33161;BME280;19522;45.656;11.302;2022-12-29T04:19:01;98861.44;;;6.19;94.86
33161;BME280;19522;45.656;11.302;2022-12-29T04:21:27;98874.69;;;6.31;94.65
33161;BME280;19522;45.656;11.302;2022-12-29T04:23:52;98866.84;;;6.37;94.52
33161;BME280;19522;45.656;11.302;2022-12-29T04:26:18;98884.25;;;6.71;92.97
33161;BME280;19522;45.656;11.302;2022-12-29T04:28:43;98839.63;;;6.31;92.56
33161;BME280;19522;45.656;11.302;2022-12-29T04:31:09;98816.00;;;5.87;94.31
33161;BME280;19522;45.656;11.302;2022-12-29T04:33:34;98877.19;;;6.14;96.25
33161;BME280;19522;45.656;11.302;2022-12-29T04:36:00;98891.03;;;6.29;96.52
33161;BME280;19522;45.656;11.302;2022-12-29T04:38:25;98891.75;;;6.31;96.61
33161;BME280;19522;45.656;11.302;2022-12-29T04:40:51;98851.28;;;6.03;96.85
33161;BME280;19522;45.656;11.302;2022-12-29T04:43:17;98898.13;;;6.30;96.99
33161;BME280;19522;45.656;11.302;2022-12-29T04:45:47;98890.44;;;6.35;96.88
33161;BME280;19522;45.656;11.302;2022-12-29T04:48:13;98889.88;;;6.32;96.46
33161;BME280;19522;45.656;11.302;2022-12-29T04:50:39;98879.16;;;6.22;96.95
33161;BME280;19522;45.656;11.302;2022-12-29T04:53:05;98865.97;;;6.19;96.60
33161;BME280;19522;45.656;11.302;2022-12-29T04:55:31;98904.31;;;6.41;96.26
33161;BME280;19522;45.656;11.302;2022-12-29T04:57:56;98869.13;;;6.14;96.71
33161;BME280;19522;45.656;11.302;2022-12-29T05:00:22;98899.72;;;6.69;95.08
33161;BME280;19522;45.656;11.302;2022-12-29T05:02:48;98891.19;;;6.74;93.87
33161;BME280;19522;45.656;11.302;2022-12-29T05:05:14;98857.59;;;6.40;94.63
33161;BME280;19522;45.656;11.302;2022-12-29T05:07:40;98857.41;;;6.23;95.46
33161;BME280;19522;45.656;11.302;2022-12-29T05:10:06;98904.88;;;6.44;96.10
33161;BME280;19522;45.656;11.302;2022-12-29T05:12:33;98907.56;;;6.44;96.12
33161;BME280;19522;45.656;11.302;2022-12-29T05:14:59;98910.88;;;6.38;96.18
33161;BME280;19522;45.656;11.302;2022-12-29T05:17:26;98879.69;;;6.26;95.47
33161;BME280;19522;45.656;11.302;2022-12-29T05:19:51;98867.47;;;6.03;96.60
33161;BME280;19522;45.656;11.302;2022-12-29T05:22:17;98916.56;;;6.35;97.10
33161;BME280;19522;45.656;11.302;2022-12-29T05:24:42;98913.13;;;6.43;96.89
33161;BME280;19522;45.656;11.302;2022-12-29T05:27:08;98895.25;;;6.60;94.59
33161;BME280;19522;45.656;11.302;2022-12-29T05:29:33;98905.38;;;6.58;94.72
33161;BME280;19522;45.656;11.302;2022-12-29T05:31:59;98911.72;;;6.38;96.25
33161;BME280;19522;45.656;11.302;2022-12-29T05:34:24;98914.94;;;6.24;97.52
33161;BME280;19522;45.656;11.302;2022-12-29T05:36:50;98917.69;;;5.95;98.64
33161;BME280;19522;45.656;11.302;2022-12-29T05:39:15;98909.66;;;5.75;100.00
33161;BME280;19522;45.656;11.302;2022-12-29T05:41:41;98835.97;;;5.66;99.38
33161;BME280;19522;45.656;11.302;2022-12-29T05:44:06;98888.09;;;6.22;97.40
33161;BME280;19522;45.656;11.302;2022-12-29T05:46:32;98921.75;;;6.18;98.44
33161;BME280;19522;45.656;11.302;2022-12-29T05:48:57;98900.38;;;5.97;100.00
33161;BME280;19522;45.656;11.302;2022-12-29T05:51:23;98901.38;;;6.34;98.33
33161;BME280;19522;45.656;11.302;2022-12-29T05:53:49;98910.88;;;6.38;97.49
33161;BME280;19522;45.656;11.302;2022-12-29T05:56:14;98912.34;;;6.22;98.57
33161;BME280;19522;45.656;11.302;2022-12-29T05:58:39;98915.69;;;6.06;99.90
33161;BME280;19522;45.656;11.302;2022-12-29T06:01:05;98911.00;;;6.08;100.00
33161;BME280;19522;45.656;11.302;2022-12-29T06:03:30;98913.16;;;6.05;100.00
33161;BME280;19522;45.656;11.302;2022-12-29T06:05:56;98907.56;;;6.16;100.00
33161;BME280;19522;45.656;11.302;2022-12-29T06:08:21;98916.31;;;6.28;100.00
33161;BME280;19522;45.656;11.302;2022-12-29T06:10:47;98918.66;;;6.41;99.25
33161;BME280;19522;45.656;11.302;2022-12-29T06:13:12;98864.88;;;6.12;98.07
33161;BME280;19522;45.656;11.302;2022-12-29T06:15:38;98906.75;;;6.44;98.27
33161;BME280;19522;45.656;11.302;2022-12-29T06:18:03;98893.38;;;6.42;98.08
33161;BME280;19522;45.656;11.302;2022-12-29T06:20:29;98902.09;;;6.36;98.80
33161;BME280;19522;45.656;11.302;2022-12-29T06:22:54;98897.84;;;6.33;99.24
33161;BME280;19522;45.656;11.302;2022-12-29T06:25:20;98886.97;;;6.25;99.30
33161;BME280;19522;45.656;11.302;2022-12-29T06:27:45;98904.38;;;6.59;97.59
33161;BME280;19522;45.656;11.302;2022-12-29T06:30:11;98884.09;;;6.54;96.77
33161;BME280;19522;45.656;11.302;2022-12-29T06:32:37;98861.31;;;6.39;96.69
33161;BME280;19522;45.656;11.302;2022-12-29T06:35:04;98898.06;;;6.40;97.68
33161;BME280;19522;45.656;11.302;2022-12-29T06:37:31;98898.44;;;6.27;99.25
33161;BME280;19522;45.656;11.302;2022-12-29T06:39:57;98882.88;;;6.11;100.00
33161;BME280;19522;45.656;11.302;2022-12-29T06:42:23;98854.88;;;5.84;100.00
33161;BME280;19522;45.656;11.302;2022-12-29T06:44:48;98908.66;;;6.23;100.00
33161;BME280;19522;45.656;11.302;2022-12-29T06:47:14;98900.19;;;6.46;99.98
33161;BME280;19522;45.656;11.302;2022-12-29T06:49:39;98872.84;;;6.31;99.53
33161;BME280;19522;45.656;11.302;2022-12-29T06:52:05;98896.06;;;6.42;99.92
33161;BME280;19522;45.656;11.302;2022-12-29T06:54:31;98895.25;;;6.42;100.00
33161;BME280;19522;45.656;11.302;2022-12-29T06:56:57;98894.38;;;6.41;100.00
33161;BME280;19522;45.656;11.302;2022-12-29T06:59:23;98887.16;;;6.42;100.00
33161;BME280;19522;45.656;11.302;2022-12-29T07:01:49;98888.41;;;6.47;100.00
33161;BME280;19522;45.656;11.302;2022-12-29T07:04:15;98880.75;;;6.43;100.00
33161;BME280;19522;45.656;11.302;2022-12-29T07:06:40;98824.00;;;6.06;100.00
33161;BME280;19522;45.656;11.302;2022-12-29T07:09:07;98870.25;;;6.39;99.64
33161;BME280;19522;45.656;11.302;2022-12-29T07:11:33;98850.75;;;6.28;99.15
33161;BME280;19522;45.656;11.302;2022-12-29T07:13:58;98897.41;;;6.56;98.92
33161;BME280;19522;45.656;11.302;2022-12-29T07:16:24;98894.72;;;6.56;98.43
33161;BME280;19522;45.656;11.302;2022-12-29T07:18:50;98897.94;;;6.88;95.43
33161;BME280;19522;45.656;11.302;2022-12-29T07:21:15;98901.94;;;7.01;93.94
33161;BME280;19522;45.656;11.302;2022-12-29T07:23:41;98907.16;;;6.85;94.00
33161;BME280;19522;45.656;11.302;2022-12-29T07:26:08;98919.34;;;6.43;96.87
33161;BME280;19522;45.656;11.302;2022-12-29T07:28:35;98917.47;;;6.26;98.90
33161;BME280;19522;45.656;11.302;2022-12-29T07:31:01;98906.97;;;6.22;99.60
33161;BME280;19522;45.656;11.302;2022-12-29T07:33:30;98915.16;;;6.31;100.00
33161;BME280;19522;45.656;11.302;2022-12-29T07:35:56;98892.59;;;5.94;100.00
33161;BME280;19522;45.656;11.302;2022-12-29T07:38:21;98916.06;;;6.21;100.00
33161;BME280;19522;45.656;11.302;2022-12-29T07:40:47;98920.56;;;6.31;100.00
33161;BME280;19522;45.656;11.302;2022-12-29T07:43:12;98918.81;;;6.39;100.00
33161;BME280;19522;45.656;11.302;2022-12-29T07:45:38;98901.00;;;6.29;100.00
33161;BME280;19522;45.656;11.302;2022-12-29T07:48:04;98924.81;;;6.33;99.65
33161;BME280;19522;45.656;11.302;2022-12-29T07:50:33;98794.84;;;5.64;99.30
33161;BME280;19522;45.656;11.302;2022-12-29T07:52:59;98847.47;;;5.96;98.69
33161;BME280;19522;45.656;11.302;2022-12-29T07:55:24;98931.66;;;6.55;98.35
33161;BME280;19522;45.656;11.302;2022-12-29T07:57:52;98910.56;;;6.41;98.10
33161;BME280;19522;45.656;11.302;2022-12-29T08:00:19;98902.81;;;6.56;96.97
33161;BME280;19522;45.656;11.302;2022-12-29T08:02:45;98928.50;;;6.78;95.53
33161;BME280;19522;45.656;11.302;2022-12-29T08:05:10;98924.59;;;6.73;95.47
33161;BME280;19522;45.656;11.302;2022-12-29T08:07:36;98938.31;;;6.61;96.63
33161;BME280;19522;45.656;11.302;2022-12-29T08:10:02;98908.38;;;6.27;98.41
33161;BME280;19522;45.656;11.302;2022-12-29T08:12:27;98948.84;;;6.27;99.49
33161;BME280;19522;45.656;11.302;2022-12-29T08:14:53;98960.66;;;6.16;100.00
33161;BME280;19522;45.656;11.302;2022-12-29T08:17:18;98956.78;;;6.28;100.00
33161;BME280;19522;45.656;11.302;2022-12-29T08:19:44;98924.56;;;6.27;100.00
33161;BME280;19522;45.656;11.302;2022-12-29T08:22:09;98941.03;;;6.51;100.00
33161;BME280;19522;45.656;11.302;2022-12-29T08:24:35;98937.50;;;6.51;100.00
33161;BME280;19522;45.656;11.302;2022-12-29T08:27:00;98954.25;;;6.54;100.00
33161;BME280;19522;45.656;11.302;2022-12-29T08:29:27;98949.22;;;6.60;100.00
33161;BME280;19522;45.656;11.302;2022-12-29T08:31:52;98952.25;;;6.75;99.78
33161;BME280;19522;45.656;11.302;2022-12-29T08:34:18;98952.13;;;6.76;99.53
33161;BME280;19522;45.656;11.302;2022-12-29T08:36:43;98930.28;;;6.69;99.25
33161;BME280;19522;45.656;11.302;2022-12-29T08:39:09;98961.69;;;6.89;98.96
33161;BME280;19522;45.656;11.302;2022-12-29T08:41:34;98953.84;;;6.95;98.00
33161;BME280;19522;45.656;11.302;2022-12-29T08:44:00;98916.97;;;6.68;98.15
33161;BME280;19522;45.656;11.302;2022-12-29T08:46:25;98934.78;;;7.15;94.99
33161;BME280;19522;45.656;11.302;2022-12-29T08:48:51;98931.13;;;6.70;96.80
33161;BME280;19522;45.656;11.302;2022-12-29T08:51:16;98973.91;;;6.93;97.57
33161;BME280;19522;45.656;11.302;2022-12-29T08:53:42;98976.97;;;6.80;99.09
33161;BME280;19522;45.656;11.302;2022-12-29T08:56:09;98973.13;;;6.82;99.77
33161;BME280;19522;45.656;11.302;2022-12-29T08:58:35;98949.13;;;6.51;100.00
33161;BME280;19522;45.656;11.302;2022-12-29T09:01:01;98981.84;;;6.76;100.00
33161;BME280;19522;45.656;11.302;2022-12-29T09:03:26;98973.53;;;6.88;99.73
33161;BME280;19522;45.656;11.302;2022-12-29T09:05:53;98974.72;;;7.21;97.57
33161;BME280;19522;45.656;11.302;2022-12-29T09:08:19;98970.38;;;7.10;97.37
33161;BME280;19522;45.656;11.302;2022-12-29T09:10:45;98971.38;;;7.09;97.88
33161;BME280;19522;45.656;11.302;2022-12-29T09:13:12;98972.28;;;7.00;98.65
33161;BME280;19522;45.656;11.302;2022-12-29T09:15:37;98920.56;;;6.77;98.72
33161;BME280;19522;45.656;11.302;2022-12-29T09:18:03;98987.03;;;6.88;99.57
33161;BME280;19522;45.656;11.302;2022-12-29T09:20:29;98983.00;;;6.92;100.00
33161;BME280;19522;45.656;11.302;2022-12-29T09:22:54;98975.69;;;7.02;100.00
33161;BME280;19522;45.656;11.302;2022-12-29T09:25:20;98957.81;;;6.73;100.00
33161;BME280;19522;45.656;11.302;2022-12-29T09:27:48;98975.84;;;6.54;100.00
33161;BME280;19522;45.656;11.302;2022-12-29T09:30:14;98976.00;;;6.71;100.00
33161;BME280;19522;45.656;11.302;2022-12-29T09:32:40;98954.84;;;6.76;100.00
33161;BME280;19522;45.656;11.302;2022-12-29T09:35:06;98980.41;;;7.18;100.00
33161;BME280;19522;45.656;11.302;2022-12-29T09:37:32;98987.84;;;7.34;99.88
33161;BME280;19522;45.656;11.302;2022-12-29T09:39:58;98933.56;;;7.27;97.76
33161;BME280;19522;45.656;11.302;2022-12-29T09:42:24;98985.56;;;7.47;97.35
33161;BME280;19522;45.656;11.302;2022-12-29T09:47:19;98963.81;;;6.95;100.00
33161;BME280;19522;45.656;11.302;2022-12-29T09:49:54;98983.13;;;7.18;100.00
33161;BME280;19522;45.656;11.302;2022-12-29T09:52:23;98971.09;;;7.30;100.00
33161;BME280;19522;45.656;11.302;2022-12-29T09:54:56;98965.59;;;7.40;100.00
33161;BME280;19522;45.656;11.302;2022-12-29T09:57:45;98955.31;;;7.44;100.00
33161;BME280;19522;45.656;11.302;2022-12-29T10:00:20;98964.72;;;7.58;100.00
33161;BME280;19522;45.656;11.302;2022-12-29T10:02:52;98930.81;;;7.45;99.39
33161;BME280;19522;45.656;11.302;2022-12-29T10:05:46;98966.72;;;7.56;97.78
33161;BME280;19522;45.656;11.302;2022-12-29T10:19:49;98945.91;;;8.01;94.56
33161;BME280;19522;45.656;11.302;2022-12-29T10:22:54;98950.59;;;7.64;95.82
33161;BME280;19522;45.656;11.302;2022-12-29T10:25:29;98941.84;;;7.97;95.48
33161;BME280;19522;45.656;11.302;2022-12-29T10:27:59;98945.78;;;7.58;95.76
33161;BME280;19522;45.656;11.302;2022-12-29T10:30:25;98925.41;;;7.45;97.38
33161;BME280;19522;45.656;11.302;2022-12-29T10:32:58;98945.13;;;7.20;98.86
33161;BME280;19522;45.656;11.302;2022-12-29T10:35:33;98929.69;;;7.12;99.63
33161;BME280;19522;45.656;11.302;2022-12-29T10:43:25;98927.84;;;7.75;96.78
33161;BME280;19522;45.656;11.302;2022-12-29T10:46:00;98934.38;;;7.64;95.74
33161;BME280;19522;45.656;11.302;2022-12-29T10:48:32;98931.59;;;7.56;97.28
33161;BME280;19522;45.656;11.302;2022-12-29T10:51:02;98916.44;;;7.89;96.03
33161;BME280;19522;45.656;11.302;2022-12-29T10:53:59;98926.47;;;7.97;95.63
33161;BME280;19522;45.656;11.302;2022-12-29T10:56:37;98937.06;;;7.90;95.61
33161;BME280;19522;45.656;11.302;2022-12-29T10:59:21;98868.53;;;7.73;94.48
33161;BME280;19522;45.656;11.302;2022-12-29T11:07:03;98898.69;;;8.56;91.76
33161;BME280;19522;45.656;11.302;2022-12-29T11:09:31;98857.88;;;8.06;89.71
33161;BME280;19522;45.656;11.302;2022-12-29T11:11:57;98881.25;;;8.16;88.45
33161;BME280;19522;45.656;11.302;2022-12-29T11:14:28;98902.28;;;7.95;87.85
33161;BME280;19522;45.656;11.302;2022-12-29T11:17:03;98906.22;;;8.01;89.06
33161;BME280;19522;45.656;11.302;2022-12-29T11:19:31;98898.66;;;8.13;90.26
33161;BME280;19522;45.656;11.302;2022-12-29T11:22:25;98884.72;;;8.42;88.92
33161;BME280;19522;45.656;11.302;2022-12-29T11:24:53;98877.91;;;8.65;88.38
33161;BME280;19522;45.656;11.302;2022-12-29T11:27:25;98881.94;;;8.52;88.67
33161;BME280;19522;45.656;11.302;2022-12-29T11:29:53;98875.69;;;8.60;87.59
33161;BME280;19522;45.656;11.302;2022-12-29T11:32:24;98876.56;;;8.77;87.50
33161;BME280;19522;45.656;11.302;2022-12-29T11:34:50;98802.81;;;8.32;87.02
33161;BME280;19522;45.656;11.302;2022-12-29T11:37:18;98818.22;;;8.32;84.88
33161;BME280;19522;45.656;11.302;2022-12-29T11:45:09;98839.00;;;9.24;82.49
33161;BME280;19522;45.656;11.302;2022-12-29T11:47:44;98834.44;;;9.24;81.86
33161;BME280;19522;45.656;11.302;2022-12-29T11:50:20;98861.69;;;9.06;80.81
33161;BME280;19522;45.656;11.302;2022-12-29T11:52:48;98854.09;;;9.18;81.89
33161;BME280;19522;45.656;11.302;2022-12-29T11:55:20;98763.66;;;9.11;77.14
33161;BME280;19522;45.656;11.302;2022-12-29T11:57:47;98839.34;;;9.45;78.79
33161;BME280;19522;45.656;11.302;2022-12-29T12:00:16;98843.56;;;9.40;77.90
33161;BME280;19522;45.656;11.302;2022-12-29T12:02:50;98819.91;;;9.09;78.48
33161;BME280;19522;45.656;11.302;2022-12-29T12:05:35;98843.25;;;9.34;79.07
33161;BME280;19522;45.656;11.302;2022-12-29T12:08:18;98822.75;;;9.32;79.60
33161;BME280;19522;45.656;11.302;2022-12-29T12:11:10;98829.78;;;9.74;76.01
33161;BME280;19522;45.656;11.302;2022-12-29T12:13:42;98828.66;;;9.52;76.24
33161;BME280;19522;45.656;11.302;2022-12-29T12:16:20;98822.22;;;9.53;75.39
33161;BME280;19522;45.656;11.302;2022-12-29T12:18:48;98833.06;;;9.53;75.96
33161;BME280;19522;45.656;11.302;2022-12-29T12:21:22;98828.66;;;9.52;75.42
33161;BME280;19522;45.656;11.302;2022-12-29T12:27:02;98823.94;;;9.38;76.73
33161;BME280;19522;45.656;11.302;2022-12-29T12:32:15;98833.22;;;8.77;79.15
33161;BME280;19522;45.656;11.302;2022-12-29T12:34:45;98814.59;;;8.49;80.57
33161;BME280;19522;45.656;11.302;2022-12-29T12:50:59;98798.84;;;8.61;82.53
33161;BME280;19522;45.656;11.302;2022-12-29T12:59:06;98789.06;;;8.68;82.99
33161;BME280;19522;45.656;11.302;2022-12-29T13:02:00;98795.69;;;8.82;80.77
33161;BME280;19522;45.656;11.302;2022-12-29T13:15:43;98803.38;;;8.44;80.70
33161;BME280;19522;45.656;11.302;2022-12-29T13:18:33;98806.94;;;8.45;81.66
33161;BME280;19522;45.656;11.302;2022-12-29T13:26:39;98796.75;;;7.79;82.80
33161;BME280;19522;45.656;11.302;2022-12-29T13:34:53;98791.34;;;8.22;82.13
33161;BME280;19522;45.656;11.302;2022-12-29T13:37:26;98794.38;;;8.35;82.81
33161;BME280;19522;45.656;11.302;2022-12-29T13:39:59;98797.47;;;8.40;82.92
33161;BME280;19522;45.656;11.302;2022-12-29T13:42:29;98801.31;;;8.38;83.03
33161;BME280;19522;45.656;11.302;2022-12-29T13:45:00;98808.94;;;8.42;84.28
33161;BME280;19522;45.656;11.302;2022-12-29T13:47:40;98804.63;;;8.50;82.54
33161;BME280;19522;45.656;11.302;2022-12-29T13:50:22;98813.94;;;8.55;81.58
33161;BME280;19522;45.656;11.302;2022-12-29T13:55:39;98775.13;;;8.38;80.82
33161;BME280;19522;45.656;11.302;2022-12-29T13:58:44;98810.03;;;8.66;79.10
33161;BME280;19522;45.656;11.302;2022-12-29T14:01:19;98813.44;;;8.68;78.77
33161;BME280;19522;45.656;11.302;2022-12-29T14:06:28;98799.47;;;8.38;80.51
33161;BME280;19522;45.656;11.302;2022-12-29T14:09:00;98816.53;;;8.31;81.50
33161;BME280;19522;45.656;11.302;2022-12-29T14:11:34;98825.84;;;8.28;81.44
33161;BME280;19522;45.656;11.302;2022-12-29T14:14:12;98820.53;;;8.18;80.72
33161;BME280;19522;45.656;11.302;2022-12-29T14:16:39;98797.66;;;7.96;81.43
33161;BME280;19522;45.656;11.302;2022-12-29T14:19:27;98815.97;;;8.10;82.05
33161;BME280;19522;45.656;11.302;2022-12-29T14:21:59;98835.25;;;8.16;81.45
33161;BME280;19522;45.656;11.302;2022-12-29T14:27:00;98815.41;;;8.41;81.16
33161;BME280;19522;45.656;11.302;2022-12-29T14:31:54;98815.69;;;8.30;80.79
33161;BME280;19522;45.656;11.302;2022-12-29T14:37:00;98825.53;;;8.31;81.10
33161;BME280;19522;45.656;11.302;2022-12-29T14:39:39;98801.97;;;8.15;81.61
33161;BME280;19522;45.656;11.302;2022-12-29T14:44:49;98815.44;;;8.50;78.73
33161;BME280;19522;45.656;11.302;2022-12-29T14:47:39;98830.19;;;8.55;78.83
33161;BME280;19522;45.656;11.302;2022-12-29T14:52:32;98817.78;;;8.53;79.31
33161;BME280;19522;45.656;11.302;2022-12-29T14:57:41;98804.63;;;8.66;79.91
33161;BME280;19522;45.656;11.302;2022-12-29T15:00:21;98805.50;;;9.00;77.48
33161;BME280;19522;45.656;11.302;2022-12-29T15:05:51;98683.25;;;8.04;77.20
33161;BME280;19522;45.656;11.302;2022-12-29T15:08:20;98705.34;;;7.83;78.13
33161;BME280;19522;45.656;11.302;2022-12-29T15:11:01;98815.97;;;8.10;81.04
33161;BME280;19522;45.656;11.302;2022-12-29T15:13:38;98773.53;;;7.68;82.02
33161;BME280;19522;45.656;11.302;2022-12-29T15:16:05;98748.75;;;7.46;83.36
33161;BME280;19522;45.656;11.302;2022-12-29T15:18:45;98821.28;;;7.94;83.04
33161;BME280;19522;45.656;11.302;2022-12-29T15:21:13;98821.03;;;8.14;82.67
33161;BME280;19522;45.656;11.302;2022-12-29T15:23:42;98818.22;;;8.23;81.78
33161;BME280;19522;45.656;11.302;2022-12-29T15:26:09;98817.25;;;7.90;82.19
33161;BME280;19522;45.656;11.302;2022-12-29T15:28:40;98794.13;;;7.61;83.02